createdAt,value
2022-09-23T00:01:22.287Z,72.50
2022-09-23T00:03:49.775Z,72.60
2022-09-23T00:06:22.241Z,72.60
2022-09-23T00:08:50.580Z,72.50
2022-09-23T00:11:21.001Z,72.60
2022-09-23T00:13:50.159Z,72.70
2022-09-23T00:16:21.347Z,72.80
2022-09-23T00:18:50.192Z,73.00
2022-09-23T00:21:19.139Z,73.00
2022-09-23T00:23:46.373Z,73.10
2022-09-23T00:26:16.123Z,73.20
2022-09-23T00:28:43.465Z,73.40
2022-09-23T00:31:13.368Z,73.40
2022-09-23T00:33:40.818Z,72.10
2022-09-23T00:36:16.607Z,73.50
2022-09-23T00:38:45.336Z,73.60
2022-09-23T00:41:15.243Z,74.80
2022-09-23T00:43:44.340Z,74.20
2022-09-23T00:46:20.420Z,74.50
2022-09-23T00:48:50.709Z,74.60
2022-09-23T00:51:23.014Z,74.60
2022-09-23T00:53:52.157Z,74.70
2022-09-23T00:56:22.731Z,74.70
2022-09-23T00:58:51.652Z,74.60
2022-09-23T01:01:20.889Z,74.60
2022-09-23T01:03:49.074Z,74.60
2022-09-23T01:06:16.252Z,74.70
2022-09-23T01:08:45.890Z,74.70
2022-09-23T01:11:37.361Z,74.80
2022-09-23T01:14:53.362Z,75.00
2022-09-23T01:18:21.585Z,75.30
2022-09-23T01:21:14.926Z,75.40
2022-09-23T01:24:14.923Z,75.40
2022-09-23T01:27:36.266Z,75.40
2022-09-23T01:30:33.996Z,75.40
2022-09-23T01:33:04.680Z,75.40
2022-09-23T01:35:39.445Z,75.60
2022-09-23T01:38:28.450Z,76.50
2022-09-23T01:41:03.376Z,75.70
2022-09-23T01:43:50.814Z,75.80
2022-09-23T01:46:24.117Z,75.80
2022-09-23T01:49:15.375Z,75.70
2022-09-23T01:51:49.905Z,75.60
2022-09-23T01:54:55.292Z,75.60
2022-09-23T01:57:31.813Z,75.60
2022-09-23T02:00:11.585Z,75.60
2022-09-23T02:02:57.584Z,75.50
2022-09-23T02:05:30.343Z,75.50
2022-09-23T02:08:08.703Z,74.90
2022-09-23T02:10:47.166Z,76.00
2022-09-23T02:13:22.062Z,75.60
2022-09-23T02:15:53.897Z,75.30
2022-09-23T02:18:25.244Z,75.10
2022-09-23T02:21:00.342Z,75.00
2022-09-23T02:23:33.858Z,74.90
2022-09-23T02:26:29.437Z,75.00
2022-09-23T02:29:32.147Z,74.90
2022-09-23T02:32:17.748Z,75.00
2022-09-23T02:35:01.047Z,75.00
2022-09-23T02:37:37.104Z,75.10
2022-09-23T02:40:16.923Z,74.50
2022-09-23T02:43:29.902Z,75.40
2022-09-23T02:45:57.144Z,75.60
2022-09-23T02:48:34.098Z,75.80
2022-09-23T02:51:03.563Z,76.00
2022-09-23T02:53:35.125Z,76.10
2022-09-23T02:56:12.670Z,76.10
2022-09-23T02:58:39.850Z,75.40
2022-09-23T03:01:26.261Z,76.20
2022-09-23T03:04:09.380Z,76.30
2022-09-23T03:07:00.964Z,76.50
2022-09-23T03:09:49.852Z,76.50
2022-09-23T03:12:39.830Z,76.70
2022-09-23T03:15:26.779Z,76.80
2022-09-23T03:18:01.306Z,76.90
2022-09-23T03:20:46.203Z,77.00
2022-09-23T03:23:15.522Z,77.00
2022-09-23T03:25:47.090Z,77.10
2022-09-23T03:28:17.320Z,76.30
2022-09-23T03:30:45.016Z,77.10
2022-09-23T03:33:16.581Z,77.20
2022-09-23T03:36:23.672Z,77.20
2022-09-23T03:38:54.565Z,77.00
2022-09-23T03:41:41.836Z,77.00
2022-09-23T03:44:10.517Z,77.00
2022-09-23T03:46:37.988Z,76.90
2022-09-23T03:49:15.364Z,77.00
2022-09-23T03:51:44.693Z,77.00
2022-09-23T03:54:12.233Z,76.90
2022-09-23T03:56:39.362Z,76.80
2022-09-23T03:59:06.551Z,76.60
2022-09-23T04:01:33.729Z,76.50
2022-09-23T04:04:01.105Z,76.20
2022-09-23T04:06:28.275Z,76.00
2022-09-23T04:08:55.487Z,75.70
2022-09-23T04:11:22.649Z,75.40
2022-09-23T04:13:49.792Z,75.10
2022-09-23T04:16:17.061Z,74.90
2022-09-23T04:18:44.259Z,74.70
2022-09-23T04:21:11.456Z,74.40
2022-09-23T04:23:38.600Z,74.10
2022-09-23T04:26:06.239Z,73.80
2022-09-23T04:28:34.238Z,72.60
2022-09-23T04:31:07.435Z,73.20
2022-09-23T04:33:34.865Z,72.90
2022-09-23T04:36:02.077Z,72.80
2022-09-23T04:38:29.329Z,72.50
2022-09-23T04:40:56.763Z,72.30
2022-09-23T04:43:23.999Z,72.20
2022-09-23T04:45:59.726Z,72.00
2022-09-23T04:48:27.362Z,71.50
2022-09-23T04:50:54.863Z,71.30
2022-09-23T04:53:22.465Z,71.10
2022-09-23T04:55:50.177Z,71.00
2022-09-23T04:58:17.444Z,70.70
2022-09-23T05:00:44.790Z,70.60
2022-09-23T05:03:13.736Z,70.30
2022-09-23T05:05:40.928Z,70.10
2022-09-23T05:08:08.339Z,69.70
2022-09-23T05:10:35.484Z,69.50
2022-09-23T05:13:02.655Z,69.60
2022-09-23T05:15:29.814Z,69.30
2022-09-23T05:18:00.231Z,69.10
2022-09-23T05:20:27.385Z,69.10
2022-09-23T05:22:56.001Z,69.20
2022-09-23T05:25:23.741Z,69.10
2022-09-23T05:27:50.890Z,68.80
2022-09-23T05:30:18.022Z,68.70
2022-09-23T05:32:45.536Z,68.80
2022-09-23T05:35:12.726Z,68.70
2022-09-23T05:37:39.895Z,68.70
2022-09-23T05:40:07.402Z,68.90
2022-09-23T05:42:34.873Z,68.80
2022-09-23T05:45:02.127Z,68.80
2022-09-23T05:47:29.258Z,68.60
2022-09-23T05:50:00.048Z,68.50
2022-09-23T05:52:27.741Z,68.70
2022-09-23T05:54:55.231Z,68.70
2022-09-23T05:57:22.409Z,68.80
2022-09-23T05:59:49.562Z,68.30
2022-09-23T06:02:16.752Z,69.00
2022-09-23T06:04:43.938Z,68.80
2022-09-23T06:07:11.197Z,68.90
2022-09-23T06:09:38.414Z,68.70
2022-09-23T06:12:06.278Z,68.80
2022-09-23T06:14:33.451Z,67.70
2022-09-23T06:17:00.602Z,68.50
2022-09-23T06:19:27.747Z,68.40
2022-09-23T06:21:54.914Z,68.40
2022-09-23T06:24:25.928Z,68.40
2022-09-23T06:26:55.890Z,68.50
2022-09-23T06:29:23.378Z,68.20
2022-09-23T06:31:50.682Z,68.20
2022-09-23T06:34:18.236Z,67.90
2022-09-23T06:36:46.629Z,67.80
2022-09-23T06:39:14.923Z,67.10
2022-09-23T06:41:43.229Z,68.00
2022-09-23T06:44:14.497Z,67.90
2022-09-23T06:46:41.831Z,67.70
2022-09-23T06:49:09.181Z,67.50
2022-09-23T06:51:36.628Z,67.50
2022-09-23T06:54:03.925Z,67.40
2022-09-23T06:56:36.125Z,67.00
2022-09-23T06:59:06.629Z,66.80
2022-09-23T07:01:34.348Z,66.40
2022-09-23T07:04:01.833Z,66.10
2022-09-23T07:06:29.047Z,66.20
2022-09-23T07:08:56.218Z,66.00
2022-09-23T07:11:23.469Z,65.90
2022-09-23T07:13:50.746Z,65.80
2022-09-23T07:16:18.423Z,65.40
2022-09-23T07:18:45.681Z,65.10
2022-09-23T07:21:18.449Z,64.70
2022-09-23T07:23:48.402Z,64.10
2022-09-23T07:26:17.977Z,63.70
2022-09-23T07:28:45.464Z,62.30
2022-09-23T07:31:15.485Z,63.00
2022-09-23T07:33:44.199Z,62.60
2022-09-23T07:36:15.989Z,62.00
2022-09-23T07:38:45.821Z,61.50
2022-09-23T07:41:16.798Z,62.10
2022-09-23T07:43:44.666Z,60.80
2022-09-23T07:46:16.126Z,60.40
2022-09-23T07:48:44.526Z,59.40
2022-09-23T07:51:20.075Z,59.90
2022-09-23T07:53:51.608Z,59.30
2022-09-23T07:56:20.251Z,58.80
2022-09-23T07:59:00.612Z,58.40
2022-09-23T08:01:33.663Z,58.30
2022-09-23T08:04:04.312Z,57.70
2022-09-23T08:06:31.896Z,57.50
2022-09-23T08:09:00.671Z,56.60
2022-09-23T08:11:28.141Z,55.90
2022-09-23T08:13:55.969Z,54.90
2022-09-23T08:16:24.403Z,54.20
2022-09-23T08:18:51.648Z,53.50
2022-09-23T08:21:20.998Z,53.80
2022-09-23T08:23:48.722Z,54.60
2022-09-23T08:26:20.876Z,54.80
2022-09-23T08:28:49.910Z,55.60
2022-09-23T08:31:17.174Z,55.60
2022-09-23T08:33:44.378Z,56.10
2022-09-23T08:36:11.538Z,56.30
2022-09-23T08:38:38.663Z,56.70
2022-09-23T08:41:20.407Z,56.30
2022-09-23T08:43:52.002Z,56.60
2022-09-23T08:46:29.921Z,56.40
2022-09-23T08:48:59.553Z,56.20
2022-09-23T08:51:48.364Z,56.40
2022-09-23T08:54:17.717Z,56.30
2022-09-23T08:56:49.098Z,55.70
2022-09-23T08:59:20.949Z,56.20
2022-09-23T09:01:48.104Z,56.00
2022-09-23T09:04:21.582Z,56.50
2022-09-23T09:07:36.244Z,56.60
2022-09-23T09:10:43.870Z,55.60
2022-09-23T09:13:31.837Z,55.60
2022-09-23T09:16:58.976Z,55.80
2022-09-23T09:19:35.678Z,56.20
2022-09-23T09:22:12.445Z,56.50
2022-09-23T09:24:40.269Z,55.90
2022-09-23T09:27:13.941Z,55.70
2022-09-23T09:29:49.977Z,55.90
2022-09-23T09:32:36.145Z,56.50
2022-09-23T09:35:17.996Z,56.40
2022-09-23T09:37:47.704Z,56.30
2022-09-23T09:40:17.086Z,56.50
2022-09-23T09:42:50.331Z,56.40
2022-09-23T09:45:40.134Z,56.80
2022-09-23T09:48:28.534Z,57.00
2022-09-23T09:50:55.917Z,57.00
2022-09-23T09:53:25.339Z,56.90
2022-09-23T09:56:06.700Z,56.70
2022-09-23T09:58:43.818Z,55.70
2022-09-23T10:01:29.343Z,55.00
2022-09-23T10:04:03.450Z,53.20
2022-09-23T10:06:33.189Z,53.00
2022-09-23T10:09:19.404Z,53.90
2022-09-23T10:12:15.793Z,54.60
2022-09-23T10:14:43.711Z,55.70
2022-09-23T10:17:24.336Z,56.20
2022-09-23T10:20:00.662Z,56.50
2022-09-23T10:22:32.594Z,56.10
2022-09-23T10:25:10.451Z,55.70
2022-09-23T10:27:38.735Z,55.90
2022-09-23T10:30:27.004Z,55.80
2022-09-23T10:32:56.784Z,55.60
2022-09-23T10:35:26.420Z,56.30
2022-09-23T10:37:55.991Z,56.70
2022-09-23T10:40:49.544Z,56.60
2022-09-23T10:43:44.206Z,56.50
2022-09-23T10:46:37.678Z,56.00
2022-09-23T10:49:23.518Z,56.30
2022-09-23T10:52:16.076Z,56.30
2022-09-23T10:55:13.609Z,56.20
2022-09-23T10:57:53.169Z,56.50
2022-09-23T11:00:37.794Z,56.70
2022-09-23T11:03:38.556Z,56.40
2022-09-23T11:06:11.653Z,56.60
2022-09-23T11:09:12.938Z,56.50
2022-09-23T11:11:46.222Z,56.20
2022-09-23T11:14:38.758Z,56.10
2022-09-23T11:17:06.000Z,57.30
2022-09-23T11:19:34.019Z,57.20
2022-09-23T11:22:08.976Z,57.30
2022-09-23T11:24:36.149Z,57.40
2022-09-23T11:27:40.161Z,57.10
2022-09-23T11:30:12.651Z,57.30
2022-09-23T11:33:21.490Z,58.10
2022-09-23T11:35:57.986Z,58.40
2022-09-23T11:38:32.934Z,58.40
2022-09-23T11:41:09.227Z,58.40
2022-09-23T11:43:39.241Z,57.30
2022-09-23T11:46:23.476Z,57.20
2022-09-23T11:49:05.258Z,57.00
2022-09-23T11:51:40.346Z,56.60
2022-09-23T11:54:15.187Z,55.40
2022-09-23T11:56:58.688Z,54.70
2022-09-23T12:02:33.598Z,52.30
2022-09-23T12:05:23.490Z,50.80
2022-09-23T12:08:04.882Z,48.20
2022-09-23T12:11:01.443Z,47.70
2022-09-23T12:14:03.279Z,46.30
2022-09-23T12:17:04.653Z,45.30
2022-09-23T12:19:43.666Z,46.70
2022-09-23T12:22:45.731Z,46.40
2022-09-23T12:25:46.408Z,46.50
2022-09-23T12:28:19.558Z,46.50
2022-09-23T12:30:48.746Z,46.40
2022-09-23T12:33:24.460Z,47.00
2022-09-23T12:35:54.387Z,47.20
2022-09-23T12:38:47.919Z,47.70
2022-09-23T12:41:23.349Z,48.30
2022-09-23T12:44:12.806Z,48.20
2022-09-23T12:46:44.537Z,46.70
2022-09-23T12:49:29.664Z,45.90
2022-09-23T12:52:12.073Z,46.70
2022-09-23T12:54:40.946Z,47.10
2022-09-23T12:57:33.073Z,48.20
2022-09-23T13:00:06.582Z,48.60
2022-09-23T13:02:38.542Z,49.10
2022-09-23T13:05:27.126Z,49.10
2022-09-23T13:08:14.981Z,49.30
2022-09-23T13:10:48.220Z,49.70
2022-09-23T13:13:31.600Z,50.00
2022-09-23T13:16:26.010Z,49.60
2022-09-23T13:19:05.402Z,48.90
2022-09-23T13:21:45.626Z,48.50
2022-09-23T13:24:12.765Z,49.10
2022-09-23T13:26:49.332Z,48.70
2022-09-23T13:29:29.169Z,47.70
2022-09-23T13:31:57.794Z,46.00
2022-09-23T13:34:30.764Z,43.10
2022-09-23T13:36:58.772Z,41.90
2022-09-23T13:39:27.539Z,41.70
2022-09-23T13:42:03.126Z,41.80
2022-09-23T13:44:30.543Z,43.70
2022-09-23T13:47:00.386Z,45.90
2022-09-23T13:49:32.691Z,47.00
2022-09-23T13:52:01.081Z,47.60
2022-09-23T13:54:46.545Z,48.70
2022-09-23T13:57:43.415Z,49.80
2022-09-23T14:00:17.715Z,50.60
2022-09-23T14:02:46.887Z,51.40
2022-09-23T14:05:25.250Z,51.30
2022-09-23T14:07:53.974Z,51.70
2022-09-23T14:10:23.694Z,52.00
2022-09-23T14:12:52.549Z,52.00
2022-09-23T14:15:21.423Z,52.30
2022-09-23T14:17:52.283Z,53.20
2022-09-23T14:20:22.092Z,53.60
2022-09-23T14:23:04.468Z,54.40
2022-09-23T14:25:33.157Z,54.10
2022-09-23T14:28:01.109Z,54.00
2022-09-23T14:30:29.239Z,54.10
2022-09-23T14:32:57.175Z,54.60
2022-09-23T14:35:38.025Z,55.30
2022-09-23T14:38:24.583Z,55.20
2022-09-23T14:41:15.550Z,55.20
2022-09-23T14:44:00.573Z,55.60
2022-09-23T14:46:31.229Z,55.50
2022-09-23T14:49:03.816Z,56.10
2022-09-23T14:51:51.812Z,56.30
2022-09-23T14:54:40.963Z,57.20
2022-09-23T14:57:22.529Z,58.20
2022-09-23T14:59:53.885Z,59.10
2022-09-23T15:02:31.040Z,59.70
2022-09-23T15:05:15.560Z,59.40
2022-09-23T15:07:51.113Z,59.90
2022-09-23T15:10:32.259Z,59.90
2022-09-23T15:13:06.199Z,61.10
2022-09-23T15:15:33.509Z,61.90
2022-09-23T15:18:15.620Z,62.50
2022-09-23T15:20:56.931Z,63.20
2022-09-23T15:23:51.751Z,63.50
2022-09-23T15:26:21.154Z,63.30
2022-09-23T15:28:49.674Z,63.60
2022-09-23T15:31:22.985Z,63.70
2022-09-23T15:33:51.187Z,64.00
2022-09-23T15:36:25.734Z,64.40
2022-09-23T15:38:55.004Z,64.40
2022-09-23T15:41:23.991Z,64.50
2022-09-23T15:43:51.539Z,64.80
2022-09-23T15:46:22.622Z,65.40
2022-09-23T15:49:00.604Z,66.80
2022-09-23T15:51:28.530Z,68.00
2022-09-23T15:53:56.309Z,69.10
2022-09-23T15:56:24.588Z,69.80
2022-09-23T15:58:51.742Z,70.10
2022-09-23T16:01:26.764Z,70.60
2022-09-23T16:03:54.325Z,70.30
2022-09-23T16:06:24.255Z,70.40
2022-09-23T16:08:52.179Z,70.20
2022-09-23T16:11:24.300Z,70.00
2022-09-23T16:13:51.617Z,69.80
2022-09-23T16:16:22.027Z,69.90
2022-09-23T16:18:51.138Z,70.20
2022-09-23T16:21:21.918Z,70.20
2022-09-23T16:23:51.206Z,70.70
2022-09-23T16:26:22.428Z,71.30
2022-09-23T16:28:51.028Z,72.50
2022-09-23T16:31:18.680Z,73.50
2022-09-23T16:33:47.014Z,74.10
2022-09-23T16:36:31.805Z,75.00
2022-09-23T16:39:01.001Z,75.50
2022-09-23T16:41:29.509Z,75.70
2022-09-23T16:43:57.550Z,75.70
2022-09-23T16:46:24.863Z,75.50
2022-09-23T16:48:53.089Z,75.30
2022-09-23T16:51:23.659Z,75.30
2022-09-23T16:53:51.989Z,75.40
2022-09-23T16:56:27.251Z,75.50
2022-09-23T16:58:55.963Z,74.90
2022-09-23T17:01:44.739Z,76.20
2022-09-23T17:04:13.115Z,76.60
2022-09-23T17:06:44.201Z,77.50
2022-09-23T17:09:12.043Z,78.40
2022-09-23T17:11:39.418Z,79.40
2022-09-23T17:14:06.730Z,79.90
2022-09-23T17:16:34.860Z,80.40
2022-09-23T17:19:10.292Z,80.70
2022-09-23T17:21:37.811Z,80.50
2022-09-23T17:24:05.619Z,80.40
2022-09-23T17:26:32.814Z,80.60
2022-09-23T17:29:01.409Z,80.90
2022-09-23T17:31:28.726Z,81.20
2022-09-23T17:33:56.102Z,81.80
2022-09-23T17:36:23.439Z,82.10
2022-09-23T17:38:53.754Z,82.90
2022-09-23T17:41:21.536Z,84.10
2022-09-23T17:43:55.038Z,84.60
2022-09-23T17:46:23.092Z,85.30
2022-09-23T17:48:55.428Z,85.90
2022-09-23T17:51:23.955Z,86.40
2022-09-23T17:53:51.524Z,87.00
2022-09-23T17:56:20.933Z,87.60
2022-09-23T17:58:49.302Z,88.10
2022-09-23T18:01:20.101Z,88.60
2022-09-23T18:03:48.696Z,88.90
2022-09-23T18:06:18.495Z,89.10
2022-09-23T18:08:47.818Z,88.00
2022-09-23T18:11:19.621Z,88.70
2022-09-23T18:13:54.919Z,88.50
2022-09-23T18:16:24.613Z,88.60
2022-09-23T18:18:57.139Z,87.80
2022-09-23T18:21:26.500Z,87.30
2022-09-23T18:23:53.936Z,87.10
2022-09-23T18:26:25.469Z,87.00
2022-09-23T18:28:55.468Z,86.20
2022-09-23T18:31:23.513Z,87.00
2022-09-23T18:33:52.056Z,86.70
2022-09-23T18:36:20.652Z,86.80
2022-09-23T18:38:48.495Z,86.80
2022-09-23T18:41:16.010Z,86.80
2022-09-23T18:43:48.161Z,87.10
2022-09-23T18:46:24.224Z,87.00
2022-09-23T18:49:10.775Z,87.10
2022-09-23T18:51:46.600Z,87.40
2022-09-23T18:54:13.783Z,86.70
2022-09-23T18:56:42.944Z,87.80
2022-09-23T18:59:14.481Z,86.60
2022-09-23T19:01:41.993Z,86.70
2022-09-23T19:04:09.716Z,86.60
2022-09-23T19:06:37.289Z,86.80
2022-09-23T19:09:06.522Z,86.60
2022-09-23T19:11:36.161Z,86.60
2022-09-23T19:14:09.925Z,86.40
2022-09-23T19:16:39.836Z,86.60
2022-09-23T19:19:07.307Z,86.50
2022-09-23T19:21:35.029Z,86.60
2022-09-23T19:24:05.163Z,86.70
2022-09-23T19:26:38.633Z,86.80
2022-09-23T19:29:08.095Z,86.40
2022-09-23T19:31:39.927Z,87.30
2022-09-23T19:34:16.308Z,87.50
2022-09-23T19:36:45.675Z,87.80
2022-09-23T19:39:19.405Z,88.60
2022-09-23T19:41:47.179Z,89.10
2022-09-23T19:44:14.717Z,89.40
2022-09-23T19:46:45.065Z,89.90
2022-09-23T19:49:13.262Z,90.10
2022-09-23T19:51:41.033Z,90.10
2022-09-23T19:54:09.186Z,90.30
2022-09-23T19:56:36.683Z,90.30
2022-09-23T19:59:06.706Z,90.10
2022-09-23T20:01:34.233Z,90.00
2022-09-23T20:04:01.825Z,90.00
2022-09-23T20:06:31.012Z,90.10
2022-09-23T20:09:00.664Z,90.20
2022-09-23T20:11:28.962Z,90.40
2022-09-23T20:14:01.243Z,90.60
2022-09-23T20:16:31.997Z,90.70
2022-09-23T20:19:00.151Z,90.90
2022-09-23T20:21:29.105Z,91.10
2022-09-23T20:23:57.267Z,91.30
2022-09-23T20:26:43.174Z,91.20
2022-09-23T20:29:11.130Z,91.40
2022-09-23T20:31:40.292Z,91.50
2022-09-23T20:34:08.286Z,91.70
2022-09-23T20:36:35.954Z,91.70
2022-09-23T20:39:08.099Z,91.30
2022-09-23T20:41:37.693Z,91.70
2022-09-23T20:44:12.656Z,91.70
2022-09-23T20:46:46.951Z,91.80
2022-09-23T20:49:16.326Z,92.00
2022-09-23T20:51:43.682Z,91.80
2022-09-23T20:54:12.038Z,92.00
2022-09-23T20:56:39.393Z,92.30
2022-09-23T20:59:06.657Z,91.60
2022-09-23T21:01:35.448Z,92.00
2022-09-23T21:04:07.862Z,91.90
2022-09-23T21:06:36.634Z,91.90
2022-09-23T21:09:05.228Z,91.80
2022-09-23T21:11:32.600Z,92.20
2022-09-23T21:14:01.381Z,91.80
2022-09-23T21:16:29.250Z,91.80
2022-09-23T21:18:57.570Z,91.80
2022-09-23T21:21:25.001Z,91.80
2022-09-23T21:23:52.366Z,91.80
2022-09-23T21:26:24.723Z,91.80
2022-09-23T21:28:59.060Z,91.90
2022-09-23T21:31:35.565Z,91.80
2022-09-23T21:34:09.122Z,91.80
2022-09-23T21:36:38.216Z,91.70
2022-09-23T21:39:06.698Z,91.30
2022-09-23T21:41:33.923Z,91.80
2022-09-23T21:44:04.624Z,91.80
2022-09-23T21:46:35.693Z,91.60
2022-09-23T21:49:04.106Z,91.20
2022-09-23T21:51:40.340Z,91.50
2022-09-23T21:54:16.729Z,91.60
2022-09-23T21:56:44.495Z,91.50
2022-09-23T21:59:11.842Z,91.60
2022-09-23T22:01:44.216Z,91.60
2022-09-23T22:04:18.051Z,91.60
2022-09-23T22:06:46.021Z,91.60
2022-09-23T22:09:16.104Z,91.60
2022-09-23T22:12:02.499Z,91.70
2022-09-23T22:14:30.539Z,91.70
2022-09-23T22:17:03.601Z,91.80
2022-09-23T22:19:36.665Z,91.80
2022-09-23T22:22:13.051Z,91.90
2022-09-23T22:24:41.740Z,91.90
2022-09-23T22:27:09.857Z,92.10
2022-09-23T22:29:55.758Z,92.00
2022-09-23T22:32:35.191Z,92.10
2022-09-23T22:35:02.990Z,92.10
2022-09-23T22:37:34.542Z,92.10
2022-09-23T22:40:07.473Z,92.20
2022-09-23T22:42:36.421Z,92.20
2022-09-23T22:45:05.679Z,92.30
2022-09-23T22:47:37.609Z,92.40
2022-09-23T22:50:06.484Z,92.50
2022-09-23T22:52:34.753Z,92.60
2022-09-23T22:55:03.400Z,93.00
2022-09-23T22:57:31.210Z,92.40
2022-09-23T22:59:58.368Z,92.40
2022-09-23T23:02:25.518Z,92.50
2022-09-23T23:04:52.719Z,92.60
2022-09-23T23:07:21.373Z,92.60
2022-09-23T23:09:52.375Z,92.50
2022-09-23T23:12:20.824Z,92.90
2022-09-23T23:14:49.258Z,93.00
2022-09-23T23:17:18.543Z,92.90
2022-09-23T23:19:45.935Z,92.90
2022-09-23T23:22:13.143Z,92.90
2022-09-23T23:24:40.353Z,93.00
2022-09-23T23:27:07.492Z,93.10
2022-09-23T23:29:34.650Z,93.10
2022-09-23T23:32:02.438Z,93.00
2022-09-23T23:34:29.637Z,93.10
2022-09-23T23:36:56.785Z,93.30
2022-09-23T23:39:25.389Z,93.30
2022-09-23T23:41:54.905Z,93.40
2022-09-23T23:44:23.797Z,93.50
2022-09-23T23:46:51.609Z,93.40
2022-09-23T23:49:19.211Z,93.30
2022-09-23T23:51:47.705Z,93.20
2022-09-23T23:54:15.249Z,93.20
2022-09-23T23:56:42.896Z,93.30
2022-09-23T23:59:10.152Z,93.30
